createdAt,value
2023-02-27T00:00:32.862Z,-1.06
2023-02-27T00:02:59.932Z,-1.06
2023-02-27T00:05:26.950Z,-1.06
2023-02-27T00:07:54.139Z,-1.05
2023-02-27T00:10:21.514Z,-1.05
2023-02-27T00:12:48.536Z,-1.10
2023-02-27T00:15:18.261Z,-1.11
2023-02-27T00:17:45.756Z,-1.09
2023-02-27T00:20:17.158Z,-1.10
2023-02-27T00:22:45.018Z,-1.15
2023-02-27T00:25:14.198Z,-1.12
2023-02-27T00:27:41.973Z,-1.12
2023-02-27T00:30:12.410Z,-1.13
2023-02-27T00:32:39.916Z,-1.13
2023-02-27T00:35:10.803Z,-1.15
2023-02-27T00:37:38.671Z,-1.13
2023-02-27T00:40:07.193Z,-1.14
2023-02-27T00:42:35.093Z,-1.12
2023-02-27T00:45:02.601Z,-1.14
2023-02-27T00:47:31.927Z,-1.13
2023-02-27T00:49:59.005Z,-1.14
2023-02-27T00:52:26.650Z,-1.14
2023-02-27T00:54:54.064Z,-1.17
2023-02-27T00:57:21.413Z,-1.18
2023-02-27T00:59:49.327Z,-1.20
2023-02-27T01:02:16.478Z,-1.25
2023-02-27T01:04:43.565Z,-1.22
2023-02-27T01:07:10.831Z,-1.23
2023-02-27T01:09:37.914Z,-1.29
2023-02-27T01:12:05.032Z,-1.29
2023-02-27T01:14:32.292Z,-1.31
2023-02-27T01:16:59.218Z,-1.32
2023-02-27T01:19:26.322Z,-1.33
2023-02-27T01:21:53.412Z,-1.39
2023-02-27T01:24:22.471Z,-1.39
2023-02-27T01:26:49.762Z,-1.51
2023-02-27T01:29:16.800Z,-1.50
2023-02-27T01:31:43.765Z,-1.51
2023-02-27T01:34:11.592Z,-1.52
2023-02-27T01:36:40.965Z,-1.53
2023-02-27T01:39:07.989Z,-1.56
2023-02-27T01:41:35.145Z,-1.59
2023-02-27T01:44:06.100Z,-1.60
2023-02-27T01:46:34.036Z,-1.63
2023-02-27T01:49:07.210Z,-1.62
2023-02-27T01:51:42.118Z,-1.65
2023-02-27T01:54:11.553Z,-1.71
2023-02-27T01:56:39.160Z,-1.79
2023-02-27T01:59:09.431Z,-1.86
2023-02-27T02:01:37.774Z,-2.32
2023-02-27T02:04:24.953Z,-1.92
2023-02-27T02:06:58.356Z,-1.94
2023-02-27T02:09:27.686Z,-1.98
2023-02-27T02:11:57.092Z,-1.98
2023-02-27T02:14:24.240Z,-2.06
2023-02-27T02:17:12.936Z,-2.03
2023-02-27T02:20:18.199Z,-2.00
2023-02-27T02:23:07.418Z,-2.00
2023-02-27T02:25:54.255Z,-2.04
2023-02-27T02:28:50.432Z,-2.06
2023-02-27T02:31:39.316Z,-2.07
2023-02-27T02:34:37.626Z,-2.07
2023-02-27T02:37:31.218Z,-2.08
2023-02-27T02:40:04.884Z,-2.07
2023-02-27T02:42:44.033Z,-2.06
2023-02-27T02:45:32.745Z,-2.08
2023-02-27T02:48:08.448Z,-2.08
2023-02-27T02:51:05.177Z,-2.11
2023-02-27T02:53:53.575Z,-2.12
2023-02-27T02:56:49.861Z,-2.13
2023-02-27T02:59:29.378Z,-2.13
2023-02-27T03:02:28.381Z,-2.15
2023-02-27T03:05:10.226Z,-2.18
2023-02-27T03:07:43.294Z,-2.19
2023-02-27T03:10:16.327Z,-2.23
2023-02-27T03:12:48.441Z,-2.26
2023-02-27T03:15:27.734Z,-2.24
2023-02-27T03:18:18.737Z,-2.25
2023-02-27T03:20:52.535Z,-2.27
2023-02-27T03:23:28.478Z,-2.28
2023-02-27T03:25:58.243Z,-2.30
2023-02-27T03:28:32.848Z,-2.32
2023-02-27T03:31:10.168Z,-2.34
2023-02-27T03:33:48.826Z,-2.34
2023-02-27T03:36:51.011Z,-2.38
2023-02-27T03:39:27.922Z,-2.41
2023-02-27T03:42:24.911Z,-2.48
2023-02-27T03:45:40.387Z,-2.52
2023-02-27T03:48:09.166Z,-2.59
2023-02-27T03:50:37.790Z,-2.62
2023-02-27T03:53:13.542Z,-2.68
2023-02-27T03:55:44.061Z,-2.66
2023-02-27T03:58:11.613Z,-2.69
2023-02-27T04:00:38.770Z,-2.70
2023-02-27T04:03:06.591Z,-2.76
2023-02-27T04:05:34.154Z,-2.84
2023-02-27T04:08:40.924Z,-2.84
2023-02-27T04:11:31.210Z,-2.84
2023-02-27T04:14:23.356Z,-2.83
2023-02-27T04:17:16.441Z,-2.84
2023-02-27T04:20:10.751Z,-2.88
2023-02-27T04:22:43.336Z,-2.87
2023-02-27T04:25:33.078Z,-2.85
2023-02-27T04:28:11.804Z,-2.83
2023-02-27T04:31:12.642Z,-2.78
2023-02-27T04:34:03.692Z,-2.77
2023-02-27T04:36:56.546Z,-2.80
2023-02-27T04:39:28.753Z,-2.81
2023-02-27T04:42:10.725Z,-2.81
2023-02-27T04:44:39.894Z,-2.83
2023-02-27T04:47:10.565Z,-2.84
2023-02-27T04:49:44.488Z,-2.89
2023-02-27T04:52:20.647Z,-2.88
2023-02-27T04:54:56.415Z,-2.90
2023-02-27T04:57:32.127Z,-2.88
2023-02-27T05:00:05.373Z,-2.90
2023-02-27T05:02:37.014Z,-2.95
2023-02-27T05:05:13.663Z,-2.89
2023-02-27T05:07:45.525Z,-2.90
2023-02-27T05:10:26.862Z,-2.90
2023-02-27T05:12:59.590Z,-2.90
2023-02-27T05:15:36.213Z,-2.89
2023-02-27T05:18:06.310Z,-2.89
2023-02-27T05:20:39.424Z,-2.82
2023-02-27T05:23:38.524Z,-2.76
2023-02-27T05:26:26.076Z,-2.71
2023-02-27T05:29:03.516Z,-2.64
2023-02-27T05:31:43.098Z,-2.63
2023-02-27T05:34:42.531Z,-2.62
2023-02-27T05:37:17.297Z,-2.65
2023-02-27T05:39:47.473Z,-2.63
2023-02-27T05:42:21.701Z,-2.57
2023-02-27T05:44:55.861Z,-2.58
2023-02-27T05:47:28.402Z,-2.55
2023-02-27T05:50:08.104Z,-2.56
2023-02-27T05:52:37.040Z,-2.51
2023-02-27T05:55:10.679Z,-2.46
2023-02-27T05:57:59.799Z,-2.40
2023-02-27T06:00:38.755Z,-2.35
2023-02-27T06:03:06.369Z,-2.31
2023-02-27T06:05:33.703Z,-2.28
2023-02-27T06:08:01.215Z,-2.27
2023-02-27T06:10:28.541Z,-2.24
2023-02-27T06:12:55.445Z,-2.21
2023-02-27T06:15:23.191Z,-2.17
2023-02-27T06:17:50.097Z,-2.16
2023-02-27T06:20:17.143Z,-2.12
2023-02-27T06:22:44.530Z,-2.09
2023-02-27T06:25:11.993Z,-2.04
2023-02-27T06:27:39.297Z,-2.02
2023-02-27T06:30:07.658Z,-1.98
2023-02-27T06:32:34.769Z,-1.95
2023-02-27T06:35:02.153Z,-1.89
2023-02-27T06:37:29.051Z,-1.87
2023-02-27T06:39:55.888Z,-1.88
2023-02-27T06:42:23.198Z,-1.86
2023-02-27T06:44:50.170Z,-1.86
2023-02-27T06:47:18.376Z,-1.88
2023-02-27T06:49:46.490Z,-1.78
2023-02-27T06:52:13.373Z,-1.74
2023-02-27T06:54:40.230Z,-1.69
2023-02-27T06:57:07.080Z,-1.62
2023-02-27T06:59:34.420Z,-1.58
2023-02-27T07:02:01.515Z,-1.54
2023-02-27T07:04:40.927Z,-1.54
2023-02-27T07:07:32.462Z,-1.59
2023-02-27T07:09:55.689Z,-1.51
2023-02-27T07:12:23.696Z,-1.52
2023-02-27T07:14:50.507Z,-1.51
2023-02-27T07:17:17.321Z,-1.48
2023-02-27T07:19:45.567Z,-1.47
2023-02-27T07:22:12.715Z,-1.51
2023-02-27T07:24:39.584Z,-1.49
2023-02-27T07:27:06.728Z,-1.47
2023-02-27T07:29:33.560Z,-1.47
2023-02-27T07:32:01.735Z,-1.42
2023-02-27T07:34:29.297Z,-1.37
2023-02-27T07:36:56.472Z,-1.40
2023-02-27T07:39:23.403Z,-1.27
2023-02-27T07:41:50.201Z,-1.24
2023-02-27T07:44:17.718Z,-1.17
2023-02-27T07:46:57.902Z,-1.13
2023-02-27T07:49:24.820Z,-1.10
2023-02-27T07:51:51.858Z,-0.99
2023-02-27T07:54:18.768Z,-0.84
2023-02-27T07:56:45.690Z,-0.73
2023-02-27T07:59:12.663Z,-0.66
2023-02-27T08:01:39.778Z,-0.55
2023-02-27T08:04:06.581Z,-0.57
2023-02-27T08:06:33.651Z,-0.64
2023-02-27T08:09:01.110Z,-0.60
2023-02-27T08:11:28.162Z,-0.53
2023-02-27T08:14:00.611Z,-0.43
2023-02-27T08:16:28.992Z,-0.31
2023-02-27T08:18:56.672Z,-0.23
2023-02-27T08:21:23.695Z,-0.18
2023-02-27T08:23:50.536Z,-0.21
2023-02-27T08:26:17.508Z,-0.17
2023-02-27T08:28:44.740Z,-0.17
2023-02-27T08:31:14.304Z,-0.15
2023-02-27T08:33:41.158Z,-0.18
2023-02-27T08:36:08.517Z,-0.15
2023-02-27T08:38:35.434Z,-0.15
2023-02-27T08:41:03.402Z,-0.20
2023-02-27T08:43:30.183Z,-0.09
2023-02-27T08:45:57.264Z,-0.04
2023-02-27T08:48:25.001Z,-0.07
2023-02-27T08:50:52.541Z,-0.04
2023-02-27T08:53:19.626Z,0.02
2023-02-27T08:55:52.192Z,0.07
2023-02-27T08:58:19.719Z,0.04
2023-02-27T09:00:46.697Z,0.00
2023-02-27T09:03:13.558Z,-0.04
2023-02-27T09:05:42.100Z,0.05
2023-02-27T09:08:08.938Z,0.13
2023-02-27T09:10:35.977Z,0.25
2023-02-27T09:13:02.718Z,0.33
2023-02-27T09:15:30.310Z,0.38
2023-02-27T09:18:02.663Z,0.44
2023-02-27T09:20:36.395Z,0.52
2023-02-27T09:23:04.161Z,0.62
2023-02-27T09:25:31.195Z,0.66
2023-02-27T09:27:58.148Z,0.71
2023-02-27T09:30:25.564Z,0.82
2023-02-27T09:32:52.419Z,0.97
2023-02-27T09:35:22.634Z,1.05
2023-02-27T09:37:49.749Z,1.28
2023-02-27T09:40:28.521Z,1.58
2023-02-27T09:43:00.828Z,1.91
2023-02-27T09:45:31.441Z,2.04
2023-02-27T09:48:08.336Z,2.27
2023-02-27T09:50:42.876Z,2.48
2023-02-27T09:53:15.797Z,2.65
2023-02-27T09:55:44.975Z,2.74
2023-02-27T09:58:29.942Z,2.80
2023-02-27T10:01:14.542Z,2.78
2023-02-27T10:04:13.066Z,2.77
2023-02-27T10:06:48.560Z,2.81
2023-02-27T10:09:24.411Z,2.91
2023-02-27T10:12:32.480Z,3.12
2023-02-27T10:15:06.048Z,3.26
2023-02-27T10:17:51.339Z,3.51
2023-02-27T10:20:29.005Z,3.90
2023-02-27T10:22:58.547Z,4.33
2023-02-27T10:25:31.744Z,4.73
2023-02-27T10:28:10.824Z,5.01
2023-02-27T10:30:37.640Z,5.22
2023-02-27T10:33:27.330Z,5.45
2023-02-27T10:35:55.290Z,5.71
2023-02-27T10:39:00.841Z,6.05
2023-02-27T10:41:28.789Z,6.18
2023-02-27T10:43:59.570Z,6.31
2023-02-27T10:46:30.049Z,6.66
2023-02-27T10:49:02.802Z,6.88
2023-02-27T10:51:32.834Z,7.31
2023-02-27T10:54:25.445Z,7.51
2023-02-27T10:57:01.291Z,7.43
2023-02-27T10:59:36.274Z,7.48
2023-02-27T11:02:48.241Z,7.72
2023-02-27T11:05:41.132Z,7.63
2023-02-27T11:08:20.668Z,7.29
2023-02-27T11:11:14.226Z,7.09
2023-02-27T11:13:45.333Z,7.10
2023-02-27T11:16:18.174Z,6.99
2023-02-27T11:18:47.673Z,6.86
2023-02-27T11:21:18.197Z,6.90
2023-02-27T11:23:59.143Z,7.11
2023-02-27T11:26:39.898Z,7.27
2023-02-27T11:29:18.547Z,7.24
2023-02-27T11:32:05.554Z,7.53
2023-02-27T11:34:39.447Z,7.86
2023-02-27T11:37:08.242Z,7.71
2023-02-27T11:39:39.625Z,7.57
2023-02-27T11:42:16.942Z,7.35
2023-02-27T11:44:56.489Z,7.39
2023-02-27T11:47:28.548Z,7.25
2023-02-27T11:50:41.809Z,7.24
2023-02-27T11:53:33.311Z,7.16
2023-02-27T11:56:02.738Z,7.08
2023-02-27T11:58:35.299Z,7.09
2023-02-27T12:01:09.757Z,6.90
2023-02-27T12:03:59.852Z,6.69
2023-02-27T12:07:05.833Z,6.23
2023-02-27T12:09:45.789Z,5.89
2023-02-27T12:12:22.312Z,5.74
2023-02-27T12:15:20.338Z,5.56
2023-02-27T12:17:59.243Z,5.42
2023-02-27T12:20:41.720Z,5.51
2023-02-27T12:23:21.738Z,5.56
2023-02-27T12:26:04.681Z,5.68
2023-02-27T12:28:39.800Z,5.71
2023-02-27T12:31:20.514Z,5.80
2023-02-27T12:33:53.596Z,5.93
2023-02-27T12:36:20.355Z,6.02
2023-02-27T12:38:47.116Z,6.16
2023-02-27T12:41:41.849Z,6.12
2023-02-27T12:44:37.087Z,5.95
2023-02-27T12:47:06.846Z,6.01
2023-02-27T12:49:51.744Z,6.30
2023-02-27T12:52:37.197Z,6.53
2023-02-27T12:55:18.049Z,6.58
2023-02-27T12:58:15.204Z,6.64
2023-02-27T13:00:52.236Z,6.67
2023-02-27T13:03:25.717Z,6.62
2023-02-27T13:06:07.189Z,6.43
2023-02-27T13:08:52.016Z,6.44
2023-02-27T13:11:41.467Z,6.29
2023-02-27T13:14:12.834Z,6.19
2023-02-27T13:16:54.307Z,6.31
2023-02-27T13:19:32.434Z,6.49
2023-02-27T13:22:12.136Z,6.56
2023-02-27T13:24:46.431Z,6.69
2023-02-27T13:27:22.266Z,7.13
2023-02-27T13:29:54.345Z,7.81
2023-02-27T13:32:51.738Z,8.49
2023-02-27T13:35:48.311Z,8.44
2023-02-27T13:38:34.807Z,7.98
2023-02-27T13:41:20.107Z,8.24
2023-02-27T13:43:53.001Z,8.97
2023-02-27T13:46:29.303Z,9.42
2023-02-27T13:49:05.989Z,9.93
2023-02-27T13:51:35.944Z,10.22
2023-02-27T13:54:25.856Z,10.60
2023-02-27T13:56:57.626Z,10.66
2023-02-27T13:59:29.061Z,10.39
2023-02-27T14:02:03.065Z,9.63
2023-02-27T14:04:33.149Z,8.96
2023-02-27T14:07:11.315Z,8.93
2023-02-27T14:09:44.744Z,8.74
2023-02-27T14:12:28.863Z,8.72
2023-02-27T14:14:59.485Z,8.96
2023-02-27T14:17:37.064Z,9.34
2023-02-27T14:20:05.594Z,9.20
2023-02-27T14:22:42.572Z,8.94
2023-02-27T14:25:54.011Z,9.14
2023-02-27T14:28:35.304Z,8.98
2023-02-27T14:31:20.515Z,8.21
2023-02-27T14:33:50.637Z,7.50
2023-02-27T14:36:27.471Z,7.48
2023-02-27T14:38:57.714Z,7.70
2023-02-27T14:41:52.267Z,7.79
2023-02-27T14:44:25.010Z,7.69
2023-02-27T14:46:54.868Z,7.60
2023-02-27T14:49:36.601Z,7.43
2023-02-27T14:52:24.026Z,7.10
2023-02-27T14:54:51.750Z,6.72
2023-02-27T14:57:28.389Z,6.30
2023-02-27T14:59:55.500Z,5.95
2023-02-27T15:02:32.736Z,5.76
2023-02-27T15:05:02.380Z,5.66
2023-02-27T15:07:34.677Z,5.34
2023-02-27T15:10:05.335Z,4.93
2023-02-27T15:12:37.646Z,4.72
2023-02-27T15:15:07.970Z,4.49
2023-02-27T15:17:39.198Z,4.37
2023-02-27T15:20:31.745Z,4.34
2023-02-27T15:23:21.231Z,4.29
2023-02-27T15:25:48.397Z,4.18
2023-02-27T15:28:35.910Z,4.01
2023-02-27T15:31:03.097Z,3.98
2023-02-27T15:33:32.695Z,3.92
2023-02-27T15:36:00.621Z,3.92
2023-02-27T15:38:36.187Z,3.83
2023-02-27T15:41:05.024Z,3.86
2023-02-27T15:43:32.445Z,3.87
2023-02-27T15:45:59.563Z,3.85
2023-02-27T15:48:26.803Z,3.63
2023-02-27T15:50:58.286Z,3.45
2023-02-27T15:53:27.350Z,3.42
2023-02-27T15:55:57.819Z,3.31
2023-02-27T15:58:30.615Z,3.13
2023-02-27T16:01:10.591Z,3.02
2023-02-27T16:03:40.428Z,3.01
2023-02-27T16:06:15.218Z,2.92
2023-02-27T16:08:48.287Z,2.85
2023-02-27T16:11:23.720Z,2.75
2023-02-27T16:13:52.145Z,2.67
2023-02-27T16:16:35.669Z,2.51
2023-02-27T16:19:30.728Z,2.42
2023-02-27T16:22:27.641Z,2.35
2023-02-27T16:24:56.308Z,2.25
2023-02-27T16:27:32.014Z,2.20
2023-02-27T16:30:03.148Z,2.15
2023-02-27T16:32:37.419Z,2.17
2023-02-27T16:35:16.793Z,2.10
2023-02-27T16:37:46.091Z,2.07
2023-02-27T16:40:16.600Z,2.01
2023-02-27T16:42:45.098Z,2.00
2023-02-27T16:45:24.080Z,1.93
2023-02-27T16:47:57.013Z,1.86
2023-02-27T16:50:28.660Z,1.83
2023-02-27T16:52:55.730Z,1.69
2023-02-27T16:55:22.657Z,1.71
2023-02-27T16:57:49.704Z,1.68
2023-02-27T17:00:18.798Z,1.64
2023-02-27T17:02:47.104Z,1.59
2023-02-27T17:05:17.802Z,1.60
2023-02-27T17:07:46.299Z,1.58
2023-02-27T17:10:18.791Z,1.54
2023-02-27T17:12:47.126Z,1.52
2023-02-27T17:15:14.908Z,1.50
2023-02-27T17:17:41.809Z,1.46
2023-02-27T17:20:10.671Z,1.46
2023-02-27T17:22:39.784Z,1.42
2023-02-27T17:25:08.182Z,1.39
2023-02-27T17:27:36.297Z,1.34
2023-02-27T17:30:04.324Z,1.34
2023-02-27T17:32:31.648Z,1.31
2023-02-27T17:34:59.436Z,1.32
2023-02-27T17:37:26.577Z,1.32
2023-02-27T17:39:55.097Z,1.29
2023-02-27T17:42:26.075Z,1.22
2023-02-27T17:44:52.980Z,1.15
2023-02-27T17:47:20.286Z,1.09
2023-02-27T17:49:47.697Z,1.05
2023-02-27T17:52:15.221Z,0.98
2023-02-27T17:54:42.048Z,0.95
2023-02-27T17:57:10.582Z,0.93
2023-02-27T17:59:37.736Z,0.92
2023-02-27T18:02:04.674Z,0.90
2023-02-27T18:04:31.926Z,0.95
2023-02-27T18:06:58.825Z,0.97
2023-02-27T18:09:25.797Z,0.95
2023-02-27T18:11:52.669Z,0.92
2023-02-27T18:14:19.565Z,0.85
2023-02-27T18:16:46.847Z,0.93
2023-02-27T18:19:14.634Z,0.87
2023-02-27T18:21:42.963Z,0.86
2023-02-27T18:24:09.907Z,0.81
2023-02-27T18:26:38.871Z,0.79
2023-02-27T18:29:08.667Z,0.74
2023-02-27T18:31:43.246Z,0.70
2023-02-27T18:34:11.180Z,0.67
2023-02-27T18:36:39.105Z,0.63
2023-02-27T18:39:06.705Z,0.57
2023-02-27T18:41:34.248Z,0.51
2023-02-27T18:44:02.050Z,0.45
2023-02-27T18:46:30.875Z,0.40
2023-02-27T18:48:59.040Z,0.38
2023-02-27T18:51:26.078Z,0.33
2023-02-27T18:53:55.307Z,0.31
2023-02-27T18:56:24.904Z,0.34
2023-02-27T18:58:52.923Z,0.30
2023-02-27T19:01:23.282Z,0.30
2023-02-27T19:03:53.605Z,0.28
2023-02-27T19:06:20.742Z,0.34
2023-02-27T19:08:49.668Z,0.33
2023-02-27T19:11:25.481Z,0.35
2023-02-27T19:13:52.533Z,0.38
2023-02-27T19:16:19.445Z,0.40
2023-02-27T19:18:47.714Z,0.40
2023-02-27T19:21:15.354Z,0.40
2023-02-27T19:23:43.592Z,0.35
2023-02-27T19:26:10.363Z,0.41
2023-02-27T19:28:37.224Z,0.43
2023-02-27T19:31:09.398Z,0.44
2023-02-27T19:33:38.120Z,0.43
2023-02-27T19:36:12.775Z,0.49
2023-02-27T19:38:41.288Z,0.56
2023-02-27T19:41:11.328Z,0.54
2023-02-27T19:43:40.181Z,0.51
2023-02-27T19:46:12.422Z,0.43
2023-02-27T19:48:40.301Z,0.35
2023-02-27T19:51:12.279Z,0.29
2023-02-27T19:53:40.900Z,0.25
2023-02-27T19:56:12.162Z,0.26
2023-02-27T19:58:39.862Z,0.25
2023-02-27T20:01:07.517Z,0.22
2023-02-27T20:03:35.755Z,0.22
2023-02-27T20:06:06.511Z,0.20
2023-02-27T20:08:34.350Z,0.18
2023-02-27T20:11:04.377Z,0.13
2023-02-27T20:13:31.256Z,0.79
2023-02-27T20:16:00.422Z,0.09
2023-02-27T20:18:27.882Z,0.12
2023-02-27T20:21:06.645Z,0.14
2023-02-27T20:23:35.538Z,0.12
2023-02-27T20:26:13.332Z,0.15
2023-02-27T20:28:40.537Z,0.11
2023-02-27T20:31:12.905Z,0.05
2023-02-27T20:33:40.512Z,0.04
2023-02-27T20:36:08.997Z,0.04
2023-02-27T20:38:39.289Z,0.05
2023-02-27T20:41:14.470Z,0.05
2023-02-27T20:43:45.092Z,0.08
2023-02-27T20:46:18.104Z,0.11
2023-02-27T20:48:45.338Z,0.08
2023-02-27T20:51:18.334Z,0.07
2023-02-27T20:53:47.261Z,0.07
2023-02-27T20:56:15.043Z,0.02
2023-02-27T20:58:42.338Z,0.02
2023-02-27T21:01:11.006Z,-0.02
2023-02-27T21:03:39.757Z,-0.09
2023-02-27T21:06:09.172Z,-0.14
2023-02-27T21:08:41.269Z,-0.15
2023-02-27T21:11:14.038Z,-0.20
2023-02-27T21:13:41.001Z,-0.17
2023-02-27T21:16:09.920Z,-0.19
2023-02-27T21:18:37.987Z,-0.20
2023-02-27T21:21:14.991Z,-0.23
2023-02-27T21:23:42.807Z,-0.23
2023-02-27T21:26:38.098Z,-0.25
2023-02-27T21:29:08.565Z,-0.26
2023-02-27T21:31:36.591Z,-0.23
2023-02-27T21:34:05.736Z,-0.22
2023-02-27T21:36:39.611Z,-0.21
2023-02-27T21:39:07.508Z,-0.18
2023-02-27T21:41:35.490Z,-0.14
2023-02-27T21:44:04.997Z,-0.16
2023-02-27T21:46:32.389Z,-0.17
2023-02-27T21:48:59.876Z,-0.16
2023-02-27T21:51:39.227Z,-0.13
2023-02-27T21:54:09.201Z,-0.13
2023-02-27T21:56:36.260Z,-0.13
2023-02-27T21:59:04.313Z,-0.14
2023-02-27T22:01:32.727Z,-0.16
2023-02-27T22:03:59.870Z,-0.14
2023-02-27T22:06:29.110Z,-0.13
2023-02-27T22:08:57.615Z,-0.15
2023-02-27T22:11:25.897Z,-0.23
2023-02-27T22:13:52.977Z,-0.28
2023-02-27T22:16:20.626Z,-0.31
2023-02-27T22:18:48.210Z,-0.33
2023-02-27T22:21:20.490Z,-0.33
2023-02-27T22:23:47.681Z,-0.36
2023-02-27T22:26:18.716Z,-0.41
2023-02-27T22:28:46.064Z,-0.40
2023-02-27T22:31:19.715Z,-0.45
2023-02-27T22:33:49.308Z,-0.47
2023-02-27T22:36:20.371Z,-0.44
2023-02-27T22:38:48.422Z,-0.44
2023-02-27T22:41:18.531Z,-0.49
2023-02-27T22:43:46.679Z,-0.52
2023-02-27T22:46:17.173Z,-0.53
2023-02-27T22:48:44.464Z,-0.54
2023-02-27T22:51:14.622Z,-0.58
2023-02-27T22:53:43.569Z,-0.59
2023-02-27T22:56:14.768Z,-0.59
2023-02-27T22:58:43.955Z,-0.62
2023-02-27T23:01:13.665Z,-0.62
2023-02-27T23:03:41.354Z,-0.63
2023-02-27T23:06:11.242Z,-0.64
2023-02-27T23:08:38.458Z,-0.67
2023-02-27T23:11:05.341Z,-0.69
2023-02-27T23:13:32.326Z,-0.74
2023-02-27T23:16:00.286Z,-0.77
2023-02-27T23:18:27.634Z,-0.82
2023-02-27T23:20:54.818Z,-0.85
2023-02-27T23:23:21.651Z,-0.83
2023-02-27T23:25:48.858Z,-0.87
2023-02-27T23:28:15.743Z,-0.85
2023-02-27T23:30:42.489Z,-0.86
2023-02-27T23:33:09.258Z,-0.87
2023-02-27T23:35:36.237Z,-0.84
2023-02-27T23:38:03.689Z,-0.83
2023-02-27T23:40:30.872Z,-0.81
2023-02-27T23:42:57.654Z,-0.78
2023-02-27T23:45:24.519Z,-0.76
2023-02-27T23:47:56.613Z,-0.76
2023-02-27T23:50:32.482Z,-0.72
2023-02-27T23:53:00.497Z,-0.67
2023-02-27T23:55:32.252Z,-0.68
2023-02-27T23:58:00.839Z,-0.69
